• Join FlightAware (Why Join?)
  • Login
  • US Flag 
02:51AM EDT


 

Airport Tracker/Info


-or-


 

Live Flight TrackerFlight Track Log ✈ SWA3499 ✈ 06-Jan-2014 ✈ TJSJ / SJU - KTPA

Flight Track Log - Related Links

Times and Time Zones

All times are in EST time to prevent confusion due to time zone crossing. See the SWA3499 flight status page for this flight to view local times or setup timezone preferences in your user account.

Time Position Orientation Groundspeed Altitude Reporting Facility
EST Latitude Longitude Course Direction KTS MPH feet Rate Location/Type
01:46PM 18.4500 -65.9667 335° Northwest 170 196 1,400  Level San Juan Center
01:47PM 18.5167 -66.0000 335° Northwest 240 276 3,300 2,520 Climbing San Juan Center
01:48PM 18.5667 -66.0333 328° Northwest 280 322 6,500 3,120 Climbing San Juan Center
01:49PM 18.6167 -66.1000 308° West 300 345 9,600 2,700 Climbing San Juan Center
01:50PM 18.6833 -66.1833 310° West 330 380 12,000 2,340 Climbing San Juan Center
01:51PM 18.7500 -66.2667 310° West 370 426 14,400 2,280 Climbing San Juan Center
01:52PM 18.8167 -66.3500 310° West 410 472 16,700 2,280 Climbing San Juan Center
01:53PM 18.9000 -66.4500 311° West 420 483 19,000 2,280 Climbing San Juan Center
01:54PM 18.9833 -66.5333 317° Northwest 420 483 21,300 2,220 Climbing San Juan Center
01:55PM 19.0667 -66.6333 311° West 430 495 23,500 2,040 Climbing San Juan Center
01:56PM 19.1500 -66.7333 311° West 440 506 25,400 2,160 Climbing San Juan Center
01:57PM 19.2167 -66.8167 310° West 420 483 27,900 2,160 Climbing San Juan Center
01:58PM 19.3000 -66.9167 311° West 440 506 29,800 1,860 Climbing San Juan Center
01:59PM 19.3667 -67.0167 305° West 440 506 31,700 1,440 Climbing San Juan Center
02:00PM 19.4500 -67.1167 311° West 450 518 32,700 1,200 Climbing San Juan Center
02:01PM 19.5333 -67.2167 311° West 460 529 34,100 1,500 Climbing San Juan Center
02:02PM 19.6167 -67.3167 312° West 460 529 35,800 1,560 Climbing San Juan Center
02:03PM 19.7000 -67.4333 307° West 450 518 37,300 1,080 Climbing San Juan Center
02:04PM 19.7667 -67.5333 305° West 440 506 38,000 300 Climbing San Juan Center
02:05PM 19.8500 -67.6333 312° West 440 506 38,000  Level San Juan Center
02:06PM 19.9167 -67.7333 305° West 440 506 38,000  Level San Juan Center
02:07PM 20.0000 -67.8333 312° West 440 506 38,000  Level San Juan Center
02:09PM 20.0833 -67.9333 312° West 440 506 38,000  Level San Juan Center
02:10PM 20.1839 -68.0569 311° West 564 649 38,000  Level Miami Center
02:11PM 20.2583 -68.1581 308° West 489 563 38,000  Level Miami Center
02:12PM 20.3164 -68.2692 299° West 456 525 38,000  Level Miami Center
02:13PM 20.3889 -68.3750 306° West 440 506 38,000  Level Miami Center
02:14PM 20.4489 -68.4861 300° West 435 501 38,000  Level Miami Center
02:15PM 20.5111 -68.5950 301° West 430 495 38,000  Level Miami Center
02:16PM 20.5728 -68.6994 302° West 430 495 38,000  Level Miami Center
02:17PM 20.6369 -68.8106 302° West 430 495 38,000  Level Miami Center
02:18PM 20.7028 -68.9197 303° West 430 495 38,000  Level Miami Center
02:19PM 20.7667 -69.0289 302° West 435 501 38,000  Level Miami Center
02:20PM 20.8286 -69.1406 301° West 435 501 38,000  Level Miami Center
02:21PM 20.8903 -69.2522 301° West 435 501 38,000  Level Miami Center
02:22PM 20.9583 -69.3636 303° West 435 501 38,000  Level Miami Center
02:23PM 21.0222 -69.4778 301° West 435 501 38,000  Level Miami Center
02:24PM 21.0858 -69.5897 301° West 440 506 38,000  Level Miami Center
02:25PM 21.1514 -69.7017 302° West 440 506 38,000  Level Miami Center
02:26PM 21.2150 -69.8161 301° West 446 513 38,000  Level Miami Center
02:27PM 21.2783 -69.9261 302° West 446 513 38,000  Level Miami Center
02:28PM 21.3419 -70.0386 301° West 446 513 38,000  Level Miami Center
02:29PM 21.4053 -70.1533 301° West 440 506 38,000  Level Miami Center
02:30PM 21.4683 -70.2639 302° West 440 506 38,000  Level Miami Center
02:31PM 21.5336 -70.3764 302° West 440 506 38,000  Level Miami Center
02:32PM 21.5944 -70.4850 301° West 440 506 38,000  Level Miami Center
02:33PM 21.6597 -70.5978 302° West 440 506 38,000  Level Miami Center
02:34PM 21.7206 -70.7089 301° West 440 506 38,000  Level Miami Center
02:35PM 21.7853 -70.8197 302° West 440 506 38,000  Level Miami Center
02:36PM 21.8481 -70.9308 301° West 440 506 38,000  Level Miami Center
02:37PM 21.9089 -71.0422 300° West 440 506 38,000  Level Miami Center
02:38PM 21.9694 -71.1536 300° West 435 501 38,000  Level Miami Center
02:39PM 22.0317 -71.2628 302° West 435 501 38,000  Level Miami Center
02:40PM 22.0944 -71.3764 301° West 435 501 38,000  Level Miami Center
02:41PM 22.1547 -71.4883 300° West 435 501 38,000  Level Miami Center
02:42PM 22.2169 -71.6000 301° West 435 501 38,000  Level Miami Center
02:43PM 22.2794 -71.7142 301° West 435 501 38,000  Level Miami Center
02:44PM 22.3439 -71.8306 301° West 440 506 38,000  Level Miami Center
02:45PM 22.4058 -71.9403 301° West 440 506 38,000  Level Miami Center
02:46PM 22.4658 -72.0547 300° West 435 501 38,000  Level Miami Center
02:47PM 22.5300 -72.1669 302° West 435 501 38,000  Level Miami Center
02:48PM 22.5919 -72.2817 300° West 435 501 38,000  Level Miami Center
02:49PM 22.6539 -72.3964 300° West 435 501 38,000  Level Miami Center
02:50PM 22.7136 -72.5136 299° West 435 501 38,000  Level Miami Center
02:51PM 22.7753 -72.6264 301° West 435 501 38,000  Level Miami Center
02:52PM 22.8389 -72.7369 302° West 435 501 38,000  Level Miami Center
02:53PM 22.8983 -72.8500 300° West 435 501 38,000  Level Miami Center
02:54PM 22.9578 -72.9656 299° West 435 501 38,000  Level Miami Center
02:55PM 23.0189 -73.0764 301° West 435 501 38,000  Level Miami Center
02:56PM 23.0806 -73.1989 299° West 435 501 38,000  Level Miami Center
02:57PM 23.1439 -73.3122 301° West 430 495 38,000  Level Miami Center
02:58PM 23.2028 -73.4281 299° West 430 495 38,000  Level Miami Center
02:59PM 23.2658 -73.5394 302° West 430 495 38,000  Level Miami Center
03:00PM 23.3247 -73.6508 300° West 430 495 38,000  Level Miami Center
03:01PM 23.3878 -73.7647 301° West 430 495 38,000  Level Miami Center
03:02PM 23.4422 -73.8767 298° West 430 495 38,000  Level Miami Center
03:03PM 23.4964 -73.9772 300° West 424 488 38,000  Level Miami Center
03:04PM 23.5592 -74.0914 301° West 434 499 38,000  Level Miami Center
03:05PM 23.6133 -74.2014 298° West 428 493 38,000  Level Miami Center
03:06PM 23.6803 -74.3156 303° West 428 493 38,000  Level Miami Center
03:07PM 23.7364 -74.4281 299° West 433 498 38,000  Level Miami Center
03:08PM 23.7967 -74.5403 300° West 433 498 38,000  Level Miami Center
03:09PM 23.8528 -74.6528 299° West 428 493 38,000  Level Miami Center
03:10PM 23.9150 -74.7631 302° West 428 493 38,000  Level Miami Center
03:11PM 23.9708 -74.8758 298° West 428 493 38,000  Level Miami Center
03:12PM 24.0286 -74.9886 299° West 428 493 38,000  Level Miami Center
03:13PM 24.0950 -75.1106 301° West 423 487 38,000  Level Miami Center
03:14PM 24.1506 -75.2214 299° West 423 487 38,000  Level Miami Center
03:15PM 24.2081 -75.3322 300° West 423 487 38,000  Level Miami Center
03:16PM 24.2636 -75.4433 299° West 423 487 38,000  Level Miami Center
03:17PM 24.3211 -75.5544 300° West 423 487 38,000  Level Miami Center
03:18PM 24.3783 -75.6678 299° West 418 481 38,000  Level Miami Center
03:19PM 24.4356 -75.7792 299° West 418 481 38,000  Level Miami Center
03:20PM 24.4928 -75.8906 299° West 418 481 38,000  Level Miami Center
03:21PM 24.5500 -76.0044 299° West 418 481 38,000  Level Miami Center
03:22PM 24.6092 -76.1228 299° West 423 487 38,000  Level Miami Center
03:23PM 24.6661 -76.2344 299° West 423 487 38,000  Level Miami Center
03:24PM 24.7167 -76.3325 300° West 423 487 38,000  Level Miami Center
03:25PM 24.7756 -76.4469 300° West 418 481 38,000  Level Miami Center
03:26PM 24.8281 -76.5589 297° West 418 481 38,000  Level Miami Center
03:27PM 24.8847 -76.6708 299° West 413 475 38,000  Level Miami Center
03:28PM 24.9411 -76.7808 299° West 413 475 38,000  Level Miami Center
03:29PM 24.9978 -76.8931 299° West 413 475 38,000  Level Miami Center
03:30PM 25.0519 -77.0056 298° West 413 475 38,000  Level Miami Center
03:31PM 25.1061 -77.1158 298° West 413 475 38,000  Level Miami Center
03:32PM 25.1644 -77.2283 300° West 413 475 38,000  Level Miami Center
03:33PM 25.2206 -77.3436 298° West 413 475 38,000  Level Miami Center
03:34PM 25.2767 -77.4586 298° West 413 475 38,000  Level Miami Center
03:35PM 25.3367 -77.5831 298° West 413 475 38,000  Level Miami Center
03:36PM 25.3925 -77.6983 298° West 413 475 38,000  Level Miami Center
03:37PM 25.4461 -77.8092 298° West 413 475 38,000  Level Miami Center
03:38PM 25.5017 -77.9247 298° West 413 475 38,000  Level Miami Center
03:39PM 25.5553 -78.0381 298° West 413 475 38,000  Level Miami Center
03:40PM 25.6106 -78.1517 298° West 413 475 38,000  Level Miami Center
03:41PM 25.6639 -78.2628 298° West 413 475 38,000  Level Miami Center
03:42PM 25.7131 -78.3742 296° West 408 470 38,000  Level Miami Center
03:43PM 25.7683 -78.4856 299° West 408 470 38,000  Level Miami Center
03:44PM 25.8192 -78.5994 296° West 413 475 38,000  Level Miami Center
03:45PM 25.8764 -78.7111 300° West 413 475 38,000  Level Miami Center
03:46PM 25.9292 -78.8228 298° West 413 475 38,000  Level Miami Center
03:47PM 25.9819 -78.9369 297° West 413 475 38,000  Level Miami Center
03:48PM 26.0392 -79.0328 304° West 413 475 38,000  Level Miami Center
03:49PM 26.0936 -79.1472 298° West 413 475 38,000  Level Miami Center
03:50PM 26.1442 -79.2569 297° West 413 475 38,000  Level Miami Center
03:51PM 26.1967 -79.3692 298° West 413 475 38,000  Level Miami Center
03:52PM 26.2511 -79.4814 298° West 413 475 38,000  Level Miami Center
03:53PM 26.3031 -79.6053 295° West 408 470 38,000  Level Miami Center
03:54PM 26.3514 -79.7039 299° West 402 463 38,000  Level Miami Center
03:55PM 26.4033 -79.8233 296° West 402 463 38,000  Level Miami Center
03:56PM 26.4514 -79.9219 299° West 402 463 38,000  Level Miami Center
03:57PM 26.5053 -80.0442 296° West 402 463 38,000  Level Miami Center
03:58PM 26.5531 -80.1453 298° West 407 468 38,000  Level Miami Center
03:59PM 26.6028 -80.2536 297° West 412 474 38,000  Level Miami Center
04:00PM 26.6603 -80.3783 297° West 407 468 38,000  Level Miami Center
04:01PM 26.7058 -80.4797 297° West 414 476 38,000 -240 Level Miami Center
04:02PM 26.7592 -80.6000 296° West 408 470 37,600 -660 Descending Miami Center
04:03PM 26.8089 -80.6992 299° West 408 470 36,700 -960 Descending Miami Center
04:04PM 26.8581 -80.8103 296° West 408 470 35,700 -1,020 Descending Miami Center
04:05PM 26.9072 -80.9214 296° West 408 470 34,700 -2,040 Descending Miami Center
04:06PM 26.9583 -81.0303 298° West 408 470 31,700 -3,180 Descending Miami Center
04:07PM 27.0153 -81.1558 297° West 408 470 28,400 -3,180 Descending Miami Center
04:08PM 27.0536 -81.2717 290° West 408 470 25,400 -2,280 Descending Miami Center
04:09PM 27.0814 -81.3892 285° West 396 456 23,900 -1,260 Descending Miami Center
04:10PM 27.1264 -81.4797 299° West 372 428 22,900 -1,200 Descending Miami Center
04:11PM 27.1792 -81.5892 298° West 372 428 21,500 -2,520 Descending Miami Center
04:12PM 27.2322 -81.6942 300° West 380 437 17,900 -2,400 Descending Miami Center
04:13PM 27.2850 -81.7989 300° West 385 443 16,700 -1,500 Descending Miami Center
04:14PM 27.3297 -81.8944 298° West 373 429 15,000 -2,100 Descending Miami Center
04:15PM 27.3725 -81.9803 299° West 361 415 12,600 -1,800 Descending Miami Center
04:16PM 27.4175 -82.0689 300° West 349 402 11,400 -900 Descending Miami Center
04:17PM 27.4586 -82.1433 302° West 313 360 10,900 -300 Descending Miami Center
04:18PM 27.5083 -82.2064 312° West 283 326 10,900 -840 Level Miami Center
04:19PM 27.5606 -82.2650 315° West 256 295 9,300 -1,500 Descending Miami Center
04:20PM 27.6042 -82.3256 309° West 256 295 7,900 -1,560 Descending Miami Center
04:21PM 27.6500 -82.3833 312° West 256 295 6,400 -1,320 Descending Tampa TRACON
04:22PM 27.7000 -82.4500 310° West 241 277 5,500 -1,140 Descending Tampa TRACON
04:23PM 27.7500 -82.5000 318° Northwest 241 277 4,200 -1,200 Descending Tampa TRACON
04:24PM 27.8000 -82.5333 329° Northwest 226 260 3,300 -900 Descending Tampa TRACON
04:25PM 27.8500 -82.5500 344° North 149 171 2,600 -600 Descending Tampa TRACON
04:26PM 27.8833 -82.5500 360° North 125 144 2,100 -840 Descending Tampa TRACON
04:27PM 27.9167 -82.5500 360° North 121 139 1,000 -900 Descending Tampa TRACON
04:28PM 27.9500 -82.5500 360° North 129 148 400 -600 Descending Tampa TRACON
04:29PM 27.9755 -82.5332 North  Level Estimated
04:36PM 27.9755 -82.5332 190° South  Level Estimated
04:37PM 27.9755 -82.5332 190° South  Level Estimated